KFFT/FFT METAR and TAF weather

Enter ICAO airport designator
Station Type Date Time Source
KFFT METAR 2021/05/10 00:11 UTC NOAA

KFFT 100011Z AUTO 32013G19KT 10SM OVC015 12/08 A2988 RMK AO2 PRESRR T01220078


Station Type Date Time Source
KFFT Decoded METAR 2021/05/10 00:11 UTC NOAA

FRANKFORT CAPITAL CITY AIRPORT , KY, United States (KFFT) 38-11N 84-54W 236M
May 09, 2021 - 08:11 PM EDT / 2021.05.10 0011 UTC
Wind: from the NW (320 degrees) at 15 MPH (13 KT) gusting to 22 MPH (19 KT):0
Visibility: 10 mile(s):0
Sky conditions: overcast
Temperature: 54.0 F (12.2 C)
Dew Point: 46.0 F (7.8 C)
Relative Humidity: 74%
Pressure (altimeter): 29.88 in. Hg (1011 hPa)
Pressure tendency: rising rapidly
ob: KFFT 100011Z AUTO 32013G19KT 10SM OVC015 12/08 A2988 RMK AO2 PRESRR T01220078
cycle: 0

Station Type Date Time Source
KFFT TAF UTC NOAA

Error!

Example: see airport list